createdAt,value
2018-05-25T00:01:45.668Z,24.54
2018-05-25T00:04:12.261Z,24.52
2018-05-25T00:06:38.359Z,24.53
2018-05-25T00:09:05.606Z,24.55
2018-05-25T00:11:31.840Z,24.57
2018-05-25T00:13:58.271Z,24.58
2018-05-25T00:16:24.374Z,24.57
2018-05-25T00:18:50.928Z,24.55
2018-05-25T00:21:17.360Z,24.52
2018-05-25T00:23:43.502Z,24.49
2018-05-25T00:26:09.962Z,24.47
2018-05-25T00:28:36.066Z,24.46
2018-05-25T00:31:02.168Z,24.46
2018-05-25T00:33:28.275Z,24.43
2018-05-25T00:35:54.373Z,24.43
2018-05-25T00:38:20.494Z,24.43
2018-05-25T00:40:46.598Z,24.43
2018-05-25T00:43:12.757Z,24.41
2018-05-25T00:45:38.845Z,24.41
2018-05-25T00:48:04.974Z,24.41
2018-05-25T00:50:31.101Z,24.40
2018-05-25T00:52:57.208Z,24.38
2018-05-25T00:55:35.533Z,24.35
2018-05-25T00:58:01.640Z,24.34
2018-05-25T01:00:28.070Z,24.32
2018-05-25T01:02:54.236Z,24.32
2018-05-25T01:05:20.333Z,24.29
2018-05-25T01:07:46.430Z,24.29
2018-05-25T01:10:12.669Z,24.28
2018-05-25T01:12:38.763Z,24.28
2018-05-25T01:15:05.129Z,24.26
2018-05-25T01:17:31.357Z,24.25
2018-05-25T01:19:57.459Z,24.25
2018-05-25T01:22:23.553Z,24.24
2018-05-25T01:24:49.671Z,24.24
2018-05-25T01:27:15.763Z,24.24
2018-05-25T01:29:42.017Z,24.24
2018-05-25T01:32:08.112Z,24.22
2018-05-25T01:34:34.201Z,24.21
2018-05-25T01:37:00.370Z,24.19
2018-05-25T01:39:26.798Z,24.18
2018-05-25T01:41:52.924Z,24.17
2018-05-25T01:44:19.066Z,24.17
2018-05-25T01:46:45.726Z,24.18
2018-05-25T01:49:11.866Z,24.18
2018-05-25T01:51:37.967Z,24.17
2018-05-25T01:54:04.085Z,24.14
2018-05-25T01:56:30.196Z,24.11
2018-05-25T01:58:56.445Z,24.08
2018-05-25T02:01:22.528Z,24.04
2018-05-25T02:03:48.624Z,24.02
2018-05-25T02:06:15.804Z,24.02
2018-05-25T02:08:41.895Z,24.02
2018-05-25T02:11:08.018Z,24.00
2018-05-25T02:13:34.135Z,23.99
2018-05-25T02:16:00.256Z,24.00
2018-05-25T02:18:26.377Z,24.03
2018-05-25T02:20:52.480Z,24.06
2018-05-25T02:23:18.655Z,24.07
2018-05-25T02:25:44.775Z,24.07
2018-05-25T02:28:10.893Z,24.08
2018-05-25T02:30:36.994Z,24.08
2018-05-25T02:33:03.242Z,24.07
2018-05-25T02:35:29.338Z,24.06
2018-05-25T02:37:55.439Z,24.07
2018-05-25T02:40:22.033Z,24.07
2018-05-25T02:42:48.131Z,24.07
2018-05-25T02:45:14.269Z,24.06
2018-05-25T02:47:41.079Z,24.05
2018-05-25T02:50:07.173Z,24.04
2018-05-25T02:52:33.282Z,24.03
2018-05-25T02:54:59.518Z,24.04
2018-05-25T02:57:25.627Z,24.02
2018-05-25T02:59:51.732Z,24.01
2018-05-25T03:02:17.861Z,24.00
2018-05-25T03:04:43.971Z,24.00
2018-05-25T03:07:10.093Z,24.00
2018-05-25T03:09:36.521Z,23.99
2018-05-25T03:12:02.651Z,23.97
2018-05-25T03:14:28.731Z,23.96
2018-05-25T03:16:54.886Z,23.97
2018-05-25T03:19:20.972Z,23.96
2018-05-25T03:21:47.357Z,23.96
2018-05-25T03:24:13.447Z,23.95
2018-05-25T03:26:39.568Z,23.96
2018-05-25T03:29:05.665Z,23.96
2018-05-25T03:31:32.066Z,23.95
2018-05-25T03:33:58.637Z,23.95
2018-05-25T03:36:24.966Z,23.95
2018-05-25T03:38:51.174Z,23.95
2018-05-25T03:41:17.693Z,23.93
2018-05-25T03:43:43.789Z,23.91
2018-05-25T03:46:09.992Z,23.89
2018-05-25T03:48:36.377Z,23.88
2018-05-25T03:51:02.516Z,23.89
2018-05-25T03:53:28.678Z,23.87
2018-05-25T03:55:55.087Z,23.86
2018-05-25T03:58:33.881Z,23.85
2018-05-25T04:01:12.176Z,23.83
2018-05-25T04:03:38.338Z,23.80
2018-05-25T04:06:04.438Z,23.80
2018-05-25T04:08:30.590Z,23.80
2018-05-25T04:10:57.012Z,23.79
2018-05-25T04:13:23.422Z,23.83
2018-05-25T04:15:50.087Z,23.86
2018-05-25T04:18:16.204Z,23.89
2018-05-25T04:20:42.569Z,23.92
2018-05-25T04:23:08.724Z,23.92
2018-05-25T04:25:35.332Z,23.91
2018-05-25T04:28:01.730Z,23.92
2018-05-25T04:30:35.033Z,23.92
2018-05-25T04:33:01.161Z,23.93
2018-05-25T04:35:27.581Z,23.94
2018-05-25T04:37:53.665Z,23.96
2018-05-25T04:40:19.821Z,23.95
2018-05-25T04:42:46.164Z,23.91
2018-05-25T04:45:12.736Z,23.88
2018-05-25T04:47:38.868Z,23.87
2018-05-25T04:50:04.975Z,23.85
2018-05-25T04:52:31.127Z,23.86
2018-05-25T04:54:57.488Z,23.86
2018-05-25T04:57:23.630Z,23.85
2018-05-25T04:59:50.036Z,23.86
2018-05-25T05:02:16.241Z,23.86
2018-05-25T05:04:42.342Z,23.84
2018-05-25T05:07:08.456Z,23.81
2018-05-25T05:09:35.013Z,23.80
2018-05-25T05:12:01.124Z,23.80
2018-05-25T05:14:27.337Z,23.82
2018-05-25T05:16:53.486Z,23.89
2018-05-25T05:19:19.598Z,23.92
2018-05-25T05:21:45.702Z,23.92
2018-05-25T05:24:11.842Z,23.92
2018-05-25T05:26:37.950Z,23.96
2018-05-25T05:29:04.101Z,23.97
2018-05-25T05:31:30.218Z,24.04
2018-05-25T05:33:56.595Z,24.14
2018-05-25T05:36:22.958Z,24.19
2018-05-25T05:38:49.085Z,24.22
2018-05-25T05:41:15.213Z,24.25
2018-05-25T05:43:41.355Z,24.28
2018-05-25T05:46:07.684Z,24.28
2018-05-25T05:48:33.833Z,24.25
2018-05-25T05:51:00.012Z,24.25
2018-05-25T05:53:26.474Z,24.27
2018-05-25T05:55:52.633Z,24.27
2018-05-25T05:58:19.978Z,24.31
2018-05-25T06:00:46.175Z,24.34
2018-05-25T06:03:12.269Z,24.37
2018-05-25T06:05:38.418Z,24.40
2018-05-25T06:08:04.868Z,24.41
2018-05-25T06:10:31.067Z,24.42
2018-05-25T06:12:57.176Z,24.42
2018-05-25T06:15:23.300Z,24.44
2018-05-25T06:17:49.883Z,24.48
2018-05-25T06:20:15.992Z,24.51
2018-05-25T06:22:42.097Z,24.53
2018-05-25T06:25:08.485Z,24.56
2018-05-25T06:27:34.594Z,24.56
2018-05-25T06:30:00.761Z,24.56
2018-05-25T06:32:26.856Z,24.58
2018-05-25T06:34:52.999Z,24.59
2018-05-25T06:37:19.152Z,24.60
2018-05-25T06:39:45.310Z,24.59
2018-05-25T06:42:11.497Z,24.58
2018-05-25T06:44:37.582Z,24.60
2018-05-25T06:47:03.717Z,24.61
2018-05-25T06:49:29.874Z,24.62
2018-05-25T06:51:56.018Z,24.63
2018-05-25T06:54:22.196Z,24.63
2018-05-25T06:56:48.303Z,24.63
2018-05-25T06:59:14.640Z,24.64
2018-05-25T07:01:40.887Z,24.65
2018-05-25T07:04:06.990Z,24.66
2018-05-25T07:06:33.173Z,24.67
2018-05-25T07:08:59.310Z,24.68
2018-05-25T07:11:25.494Z,24.69
2018-05-25T07:13:51.621Z,24.70
2018-05-25T07:16:17.747Z,24.70
2018-05-25T07:18:44.292Z,24.70
2018-05-25T07:21:10.514Z,24.71
2018-05-25T07:23:36.629Z,24.73
2018-05-25T07:26:02.799Z,24.74
2018-05-25T07:28:28.935Z,24.75
2018-05-25T07:30:55.061Z,24.77
2018-05-25T07:33:21.226Z,24.78
2018-05-25T07:35:47.338Z,24.78
2018-05-25T07:38:13.473Z,24.80
2018-05-25T07:40:39.584Z,24.82
2018-05-25T07:43:05.770Z,24.83
2018-05-25T07:45:31.869Z,24.83
2018-05-25T07:47:57.970Z,24.84
2018-05-25T07:50:24.169Z,24.86
2018-05-25T07:52:50.275Z,24.87
2018-05-25T07:55:16.785Z,24.87
2018-05-25T07:57:42.982Z,24.89
2018-05-25T08:00:09.086Z,24.89
2018-05-25T08:02:35.217Z,24.91
2018-05-25T08:05:01.468Z,24.92
2018-05-25T08:07:27.616Z,24.93
2018-05-25T08:09:54.950Z,24.95
2018-05-25T08:12:21.085Z,24.96
2018-05-25T08:14:47.222Z,24.97
2018-05-25T08:17:13.319Z,24.97
2018-05-25T08:19:39.488Z,24.98
2018-05-25T08:22:05.589Z,24.99
2018-05-25T08:24:31.708Z,25.00
2018-05-25T08:26:58.264Z,25.03
2018-05-25T08:29:24.603Z,25.03
2018-05-25T08:31:50.730Z,25.04
2018-05-25T08:34:16.879Z,25.05
2018-05-25T08:36:43.109Z,25.05
2018-05-25T08:39:09.218Z,25.06
2018-05-25T08:41:35.350Z,25.08
2018-05-25T08:44:01.720Z,25.09
2018-05-25T08:46:28.153Z,25.11
2018-05-25T08:48:54.283Z,25.12
2018-05-25T08:51:20.413Z,25.13
2018-05-25T08:53:46.658Z,25.16
2018-05-25T08:56:12.769Z,25.16
2018-05-25T08:58:38.865Z,25.17
2018-05-25T09:01:05.012Z,25.17
2018-05-25T09:03:31.124Z,25.18
2018-05-25T09:05:57.234Z,25.18
2018-05-25T09:08:23.596Z,25.19
2018-05-25T09:10:49.728Z,25.20
2018-05-25T09:13:15.909Z,25.21
2018-05-25T09:15:42.295Z,25.23
2018-05-25T09:18:08.413Z,25.24
2018-05-25T09:20:34.570Z,25.24
2018-05-25T09:23:00.666Z,25.27
2018-05-25T09:25:27.028Z,25.27
2018-05-25T09:27:53.167Z,25.29
2018-05-25T09:30:19.285Z,25.29
2018-05-25T09:32:45.794Z,25.31
2018-05-25T09:35:12.134Z,25.32
2018-05-25T09:37:38.248Z,25.32
2018-05-25T09:40:04.392Z,25.34
2018-05-25T09:42:30.786Z,25.35
2018-05-25T09:44:56.890Z,25.37
2018-05-25T09:47:23.020Z,25.38
2018-05-25T09:49:49.179Z,25.41
2018-05-25T09:52:15.399Z,25.42
2018-05-25T09:54:41.753Z,25.43
2018-05-25T09:57:07.854Z,25.45
2018-05-25T09:59:33.990Z,25.48
2018-05-25T10:02:00.099Z,25.48
2018-05-25T10:04:26.340Z,25.50
2018-05-25T10:06:52.443Z,25.53
2018-05-25T10:09:18.559Z,25.56
2018-05-25T10:11:44.718Z,25.59
2018-05-25T10:14:10.819Z,25.62
2018-05-25T10:16:36.925Z,25.62
2018-05-25T10:19:03.080Z,25.66
2018-05-25T10:21:29.178Z,25.69
2018-05-25T10:23:55.294Z,25.74
2018-05-25T10:26:21.425Z,25.72
2018-05-25T10:28:47.552Z,25.78
2018-05-25T10:31:13.810Z,25.79
2018-05-25T10:33:39.935Z,25.82
2018-05-25T10:36:06.086Z,25.83
2018-05-25T10:38:32.620Z,25.83
2018-05-25T10:40:58.985Z,25.81
2018-05-25T10:43:25.116Z,25.80
2018-05-25T10:45:51.262Z,25.80
2018-05-25T10:48:17.387Z,25.89
2018-05-25T10:50:43.529Z,25.94
2018-05-25T10:53:10.070Z,25.93
2018-05-25T10:55:36.170Z,25.92
2018-05-25T10:58:02.278Z,25.97
2018-05-25T11:00:28.671Z,26.00
2018-05-25T11:02:54.786Z,25.98
2018-05-25T11:05:20.918Z,25.97
2018-05-25T11:07:47.031Z,25.96
2018-05-25T11:10:13.199Z,26.01
2018-05-25T11:12:39.289Z,26.06
2018-05-25T11:15:05.386Z,26.10
2018-05-25T11:17:31.512Z,26.11
2018-05-25T11:19:57.609Z,26.12
2018-05-25T11:22:24.120Z,26.13
2018-05-25T11:24:50.238Z,26.12
2018-05-25T11:27:16.358Z,26.17
2018-05-25T11:29:42.529Z,26.23
2018-05-25T11:32:08.649Z,26.25
2018-05-25T11:34:34.762Z,26.27
2018-05-25T11:37:01.355Z,26.29
2018-05-25T11:39:27.462Z,26.35
2018-05-25T11:41:53.811Z,26.41
2018-05-25T11:44:21.006Z,26.41
2018-05-25T11:46:47.497Z,26.43
2018-05-25T11:49:13.598Z,26.43
2018-05-25T11:51:39.975Z,26.45
2018-05-25T11:54:06.219Z,26.48
2018-05-25T11:56:32.409Z,26.54
2018-05-25T11:58:58.517Z,26.59
2018-05-25T12:01:24.686Z,26.57
2018-05-25T12:03:51.093Z,26.55
2018-05-25T12:06:17.217Z,26.62
2018-05-25T12:08:43.756Z,26.70
2018-05-25T12:11:09.896Z,26.76
2018-05-25T12:13:36.177Z,26.79
2018-05-25T12:16:02.538Z,26.75
2018-05-25T12:18:28.642Z,26.69
2018-05-25T12:20:54.885Z,26.62
2018-05-25T12:23:20.997Z,26.64
2018-05-25T12:25:47.093Z,26.67
2018-05-25T12:28:13.267Z,26.69
2018-05-25T12:30:39.373Z,26.74
2018-05-25T12:33:05.500Z,26.80
2018-05-25T12:35:32.109Z,26.77
2018-05-25T12:37:58.217Z,26.77
2018-05-25T12:40:24.309Z,26.84
2018-05-25T12:42:50.537Z,26.87
2018-05-25T12:45:16.640Z,26.95
2018-05-25T12:47:42.743Z,26.99
2018-05-25T12:50:08.902Z,27.00
2018-05-25T12:52:35.057Z,26.91
2018-05-25T12:55:01.194Z,26.92
2018-05-25T12:57:27.299Z,26.90
2018-05-25T12:59:53.445Z,26.89
2018-05-25T13:02:19.984Z,26.92
2018-05-25T13:04:46.197Z,26.96
2018-05-25T13:07:12.298Z,26.96
2018-05-25T13:09:38.417Z,26.97
2018-05-25T13:12:04.517Z,26.92
2018-05-25T13:14:30.641Z,26.99
2018-05-25T13:16:56.777Z,27.04
2018-05-25T13:19:22.887Z,27.05
2018-05-25T13:21:49.027Z,27.06
2018-05-25T13:24:15.134Z,27.08
2018-05-25T13:26:41.257Z,27.10
2018-05-25T13:29:07.364Z,27.12
2018-05-25T13:31:33.849Z,27.15
2018-05-25T13:34:00.200Z,27.19
2018-05-25T13:36:26.300Z,27.22
2018-05-25T13:38:52.474Z,27.23
2018-05-25T13:41:18.576Z,27.27
2018-05-25T13:43:44.677Z,27.29
2018-05-25T13:46:10.913Z,27.35
2018-05-25T13:48:37.369Z,27.36
2018-05-25T13:51:03.475Z,27.37
2018-05-25T13:53:29.639Z,27.36
2018-05-25T13:55:55.750Z,27.37
2018-05-25T13:58:21.991Z,27.39
2018-05-25T14:00:48.097Z,27.40
2018-05-25T14:03:14.528Z,27.41
2018-05-25T14:05:40.665Z,27.43
2018-05-25T14:08:06.768Z,27.45
2018-05-25T14:10:32.872Z,27.47
2018-05-25T14:12:59.006Z,27.50
2018-05-25T14:15:25.109Z,27.53
2018-05-25T14:17:51.594Z,27.58
2018-05-25T14:20:17.705Z,27.62
2018-05-25T14:22:43.839Z,27.67
2018-05-25T14:25:10.317Z,27.73
2018-05-25T14:27:36.414Z,27.80
2018-05-25T14:30:02.537Z,27.89
2018-05-25T14:32:29.271Z,28.04
2018-05-25T14:34:55.357Z,28.37
2018-05-25T14:37:21.469Z,29.61
2018-05-25T14:39:47.593Z,31.24
2018-05-25T14:42:13.697Z,32.25
2018-05-25T14:44:40.238Z,32.80
2018-05-25T14:47:06.349Z,33.13
2018-05-25T14:49:32.453Z,33.38
2018-05-25T14:51:58.593Z,33.55
2018-05-25T14:54:25.015Z,33.67
2018-05-25T14:56:58.284Z,33.81
2018-05-25T14:59:24.390Z,33.86
2018-05-25T15:01:50.497Z,33.72
2018-05-25T15:04:16.631Z,33.29
2018-05-25T15:06:49.817Z,32.63
2018-05-25T15:09:16.311Z,31.62
2018-05-25T15:11:42.420Z,30.51
2018-05-25T15:14:08.614Z,29.65
2018-05-25T15:16:34.751Z,29.16
2018-05-25T15:19:00.857Z,28.85
2018-05-25T15:21:27.013Z,28.67
2018-05-25T15:23:53.113Z,28.53
2018-05-25T15:26:19.212Z,28.44
2018-05-25T15:28:45.338Z,28.39
2018-05-25T15:31:11.437Z,28.38
2018-05-25T15:33:37.553Z,28.37
2018-05-25T15:36:03.696Z,28.34
2018-05-25T15:38:29.811Z,28.34
2018-05-25T15:40:55.941Z,28.32
2018-05-25T15:43:22.267Z,28.32
2018-05-25T15:45:48.381Z,28.30
2018-05-25T15:48:14.865Z,28.32
2018-05-25T15:50:40.970Z,28.36
2018-05-25T15:53:07.107Z,28.42
2018-05-25T15:55:33.256Z,28.50
2018-05-25T15:57:59.356Z,28.53
2018-05-25T16:00:25.501Z,28.58
2018-05-25T16:02:51.608Z,28.56
2018-05-25T16:05:17.717Z,28.54
2018-05-25T16:07:44.008Z,28.54
2018-05-25T16:10:10.011Z,28.56
2018-05-25T16:12:36.394Z,28.63
2018-05-25T16:15:02.523Z,28.71
2018-05-25T16:17:28.638Z,28.76
2018-05-25T16:19:54.778Z,28.80
2018-05-25T16:22:21.205Z,28.75
2018-05-25T16:24:47.306Z,28.84
2018-05-25T16:27:13.437Z,28.94
2018-05-25T16:29:39.546Z,28.94
2018-05-25T16:32:06.012Z,28.93
2018-05-25T16:34:32.110Z,29.06
2018-05-25T16:36:58.330Z,29.16
2018-05-25T16:39:24.699Z,29.58
2018-05-25T16:41:50.800Z,29.59
2018-05-25T16:44:16.942Z,29.72
2018-05-25T16:46:43.526Z,30.10
2018-05-25T16:49:09.632Z,30.49
2018-05-25T16:51:35.736Z,30.72
2018-05-25T16:54:02.439Z,30.51
2018-05-25T16:56:28.542Z,30.07
2018-05-25T16:58:54.716Z,29.92
2018-05-25T17:01:20.904Z,29.99
2018-05-25T17:03:47.002Z,30.04
2018-05-25T17:06:13.413Z,30.11
2018-05-25T17:08:39.545Z,30.03
2018-05-25T17:11:05.975Z,29.99
2018-05-25T17:13:32.099Z,30.06
2018-05-25T17:15:58.201Z,30.13
2018-05-25T17:18:24.328Z,30.14
2018-05-25T17:20:50.429Z,30.10
2018-05-25T17:23:16.805Z,30.02
2018-05-25T17:25:43.041Z,29.94
2018-05-25T17:28:09.133Z,29.87
2018-05-25T17:30:35.277Z,29.80
2018-05-25T17:33:01.821Z,29.76
2018-05-25T17:35:28.025Z,29.73
2018-05-25T17:37:54.481Z,29.72
2018-05-25T17:40:20.617Z,29.73
2018-05-25T17:42:46.719Z,29.72
2018-05-25T17:45:13.264Z,29.74
2018-05-25T17:47:39.362Z,29.72
2018-05-25T17:50:05.526Z,29.71
2018-05-25T17:52:31.989Z,29.73
2018-05-25T17:54:58.151Z,29.76
2018-05-25T17:57:24.285Z,29.77
2018-05-25T17:59:50.433Z,29.77
2018-05-25T18:02:16.538Z,29.78
2018-05-25T18:04:42.991Z,29.76
2018-05-25T18:07:09.082Z,29.71
2018-05-25T18:09:35.334Z,29.63
2018-05-25T18:12:01.445Z,29.55
2018-05-25T18:14:27.553Z,29.48
2018-05-25T18:16:54.098Z,29.45
2018-05-25T18:19:20.193Z,29.44
2018-05-25T18:21:46.346Z,29.43
2018-05-25T18:24:12.790Z,29.41
2018-05-25T18:26:38.899Z,29.38
2018-05-25T18:29:05.029Z,29.35
2018-05-25T18:31:31.124Z,29.30
2018-05-25T18:33:57.369Z,29.25
2018-05-25T18:36:23.465Z,29.18
2018-05-25T18:38:49.563Z,29.13
2018-05-25T18:41:15.698Z,29.08
2018-05-25T18:43:41.881Z,29.03
2018-05-25T18:46:08.253Z,28.97
2018-05-25T18:48:34.353Z,28.94
2018-05-25T18:51:00.458Z,28.89
2018-05-25T18:53:26.583Z,28.84
2018-05-25T18:55:52.759Z,28.78
2018-05-25T18:58:18.881Z,28.73
2018-05-25T19:00:45.316Z,28.66
2018-05-25T19:03:11.442Z,28.58
2018-05-25T19:05:37.545Z,28.47
2018-05-25T19:08:03.672Z,28.37
2018-05-25T19:10:29.765Z,28.28
2018-05-25T19:12:55.866Z,28.19
2018-05-25T19:15:22.513Z,28.13
2018-05-25T19:17:48.623Z,28.06
2018-05-25T19:20:14.712Z,28.01
2018-05-25T19:22:40.824Z,27.95
2018-05-25T19:25:06.923Z,27.89
2018-05-25T19:27:33.060Z,27.84
2018-05-25T19:29:59.181Z,27.79
2018-05-25T19:32:25.318Z,27.75
2018-05-25T19:34:51.818Z,27.71
2018-05-25T19:37:17.922Z,27.69
2018-05-25T19:39:44.029Z,27.66
2018-05-25T19:42:10.263Z,27.63
2018-05-25T19:44:36.401Z,27.59
2018-05-25T19:47:02.526Z,27.55
2018-05-25T19:49:28.649Z,27.50
2018-05-25T19:51:54.779Z,27.46
2018-05-25T19:54:20.864Z,27.41
2018-05-25T19:56:47.010Z,27.37
2018-05-25T19:59:13.127Z,27.33
2018-05-25T20:01:39.481Z,27.27
2018-05-25T20:04:05.595Z,27.21
2018-05-25T20:06:31.718Z,27.16
2018-05-25T20:08:58.305Z,27.11
2018-05-25T20:11:24.416Z,27.04
2018-05-25T20:13:50.525Z,26.99
2018-05-25T20:16:16.757Z,26.95
2018-05-25T20:18:43.078Z,26.91
2018-05-25T20:21:09.514Z,26.89
2018-05-25T20:23:35.695Z,26.87
2018-05-25T20:26:02.069Z,26.85
2018-05-25T20:28:28.604Z,26.82
2018-05-25T20:30:54.734Z,26.79
2018-05-25T20:33:21.082Z,26.76
2018-05-25T20:35:47.287Z,26.72
2018-05-25T20:38:13.606Z,26.69
2018-05-25T20:40:40.089Z,26.65
2018-05-25T20:43:06.449Z,26.61
2018-05-25T20:45:32.557Z,26.58
2018-05-25T20:47:59.013Z,26.56
2018-05-25T20:50:25.116Z,26.52
2018-05-25T20:52:51.299Z,26.50
2018-05-25T20:55:17.544Z,26.46
2018-05-25T20:57:43.853Z,26.42
2018-05-25T21:00:10.084Z,26.40
2018-05-25T21:02:36.355Z,26.38
2018-05-25T21:05:02.462Z,26.34
2018-05-25T21:07:28.749Z,26.29
2018-05-25T21:09:54.886Z,26.28
2018-05-25T21:12:21.348Z,26.24
2018-05-25T21:14:47.467Z,26.21
2018-05-25T21:17:13.570Z,26.19
2018-05-25T21:19:39.715Z,26.15
2018-05-25T21:22:05.813Z,26.14
2018-05-25T21:24:32.057Z,26.12
2018-05-25T21:26:58.162Z,26.11
2018-05-25T21:29:24.249Z,26.09
2018-05-25T21:31:50.364Z,26.10
2018-05-25T21:34:16.464Z,26.08
2018-05-25T21:36:42.595Z,26.04
2018-05-25T21:39:09.013Z,26.01
2018-05-25T21:41:35.241Z,25.99
2018-05-25T21:44:01.349Z,25.98
2018-05-25T21:46:27.454Z,25.96
2018-05-25T21:48:53.578Z,25.93
2018-05-25T21:51:19.697Z,25.92
2018-05-25T21:53:46.077Z,25.90
2018-05-25T21:56:12.548Z,25.89
2018-05-25T21:58:38.666Z,25.87
2018-05-25T22:01:04.804Z,25.82
2018-05-25T22:03:30.921Z,25.79
2018-05-25T22:05:57.073Z,25.79
2018-05-25T22:08:23.169Z,25.76
2018-05-25T22:10:49.269Z,25.78
2018-05-25T22:13:15.512Z,25.76
2018-05-25T22:15:41.925Z,25.76
2018-05-25T22:18:08.048Z,25.75
2018-05-25T22:20:34.399Z,25.73
2018-05-25T22:23:00.505Z,25.73
2018-05-25T22:25:26.668Z,25.73
2018-05-25T22:27:52.798Z,25.71
2018-05-25T22:30:19.017Z,25.71
2018-05-25T22:32:45.222Z,25.69
2018-05-25T22:35:11.467Z,25.68
2018-05-25T22:37:37.616Z,25.67
2018-05-25T22:40:03.741Z,25.63
2018-05-25T22:42:42.133Z,25.61
2018-05-25T22:45:20.468Z,25.61
2018-05-25T22:47:59.014Z,25.60
2018-05-25T22:50:37.518Z,25.61
2018-05-25T22:53:09.429Z,25.59
2018-05-25T22:55:35.948Z,25.57
2018-05-25T22:58:02.383Z,25.55
2018-05-25T23:00:28.525Z,25.54
2018-05-25T23:02:54.612Z,25.53
2018-05-25T23:05:20.724Z,25.52
2018-05-25T23:07:46.827Z,25.50
2018-05-25T23:10:13.320Z,25.50
2018-05-25T23:12:39.423Z,25.49
2018-05-25T23:15:05.511Z,25.46
2018-05-25T23:17:31.981Z,25.45
2018-05-25T23:19:58.083Z,25.41
2018-05-25T23:22:24.184Z,25.38
2018-05-25T23:24:50.685Z,25.36
2018-05-25T23:27:17.122Z,25.35
2018-05-25T23:29:43.227Z,25.33
2018-05-25T23:32:09.354Z,25.33
2018-05-25T23:34:35.516Z,25.31
2018-05-25T23:37:01.644Z,25.31
2018-05-25T23:39:28.059Z,25.31
2018-05-25T23:41:54.153Z,25.31
2018-05-25T23:44:20.282Z,25.33
2018-05-25T23:46:46.482Z,25.31
2018-05-25T23:49:12.867Z,25.29
2018-05-25T23:51:39.040Z,25.28
2018-05-25T23:54:05.150Z,25.28
2018-05-25T23:56:31.553Z,25.27
2018-05-25T23:58:57.664Z,25.26
